Time;durP1;ratioP1;P1;durP2;ratioP2;P2;SDS_P1;SDS_P2;PMS_P1;PMS_P2;Temp;Humidity;BMP_temperature;BMP_pressure;BME280_temperature;BME280_humidity;BME280_pressure;Samples;Min_cycle;Max_cycle;Signal;HPM_P1;HPM_P2
2023/03/20 00:00:40;;;;;;;1999.90;999.90;;;10.20;1.00;;;;;;5062933;28;20541;-84
2023/03/20 00:03:08;;;;;;;1993.15;354.27;;;10.20;23.60;;;;;;5050109;28;20507;-83
2023/03/20 00:05:33;;;;;;;1999.90;693.35;;;10.20;99.90;;;;;;5073551;28;20374;-83
2023/03/20 00:07:59;;;;;;;1700.60;387.70;;;10.20;99.90;;;;;;5066627;28;20044;-83
2023/03/20 00:10:33;;;;;;;1632.78;202.52;;;10.20;99.90;;;;;;5053665;28;20128;-82
2023/03/20 00:12:59;;;;;;;1992.78;211.07;;;10.20;99.90;;;;;;5067164;28;20053;-83
2023/03/20 00:15:28;;;;;;;1999.90;612.40;;;10.30;99.90;;;;;;5054684;28;20469;-84
2023/03/20 00:17:54;;;;;;;1999.90;818.45;;;10.50;99.90;;;;;;5065946;28;20128;-84
2023/03/20 00:20:21;;;;;;;1926.10;810.00;;;10.20;99.90;;;;;;5058494;28;20120;-83
2023/03/20 00:22:47;;;;;;;1412.43;155.90;;;10.20;99.90;;;;;;5057244;28;20409;-84
2023/03/20 00:25:22;;;;;;;1499.60;194.93;;;9.70;98.50;;;;;;5071996;28;20052;-83
2023/03/20 00:27:48;;;;;;;1607.10;159.30;;;10.20;99.90;;;;;;5069901;28;20076;-82
2023/03/20 00:30:27;;;;;;;1999.90;661.38;;;10.20;99.90;;;;;;5070405;28;20052;-83
2023/03/20 00:32:54;;;;;;;1874.65;338.67;;;10.20;83.90;;;;;;5054394;28;20045;-83
2023/03/20 00:35:23;;;;;;;1999.90;587.67;;;10.20;49.80;;;;;;5064468;28;20397;-83
2023/03/20 00:37:50;;;;;;;1999.90;999.90;;;10.20;99.20;;;;;;5056339;28;20044;-83
2023/03/20 00:40:16;;;;;;;1999.90;253.52;;;10.20;45.30;;;;;;5085755;28;20389;-83
2023/03/20 00:42:45;;;;;;;1999.90;643.28;;;10.20;46.50;;;;;;5072841;28;20075;-83
2023/03/20 00:45:15;;;;;;;1999.90;943.25;;;10.20;70.40;;;;;;5056076;28;20059;-82
2023/03/20 00:47:42;;;;;;;1787.78;244.00;;;10.20;63.60;;;;;;5065887;28;20040;-83
2023/03/20 00:50:16;;;;;;;1999.90;885.30;;;10.00;28.90;;;;;;5080471;28;20080;-84
2023/03/20 00:52:43;;;;;;;1999.90;999.90;;;10.20;23.00;;;;;;5087121;28;20048;-83
2023/03/20 00:55:09;;;;;;;1999.90;999.90;;;10.20;27.30;;;;;;5077066;28;20079;-83
2023/03/20 00:57:48;;;;;;;1999.90;999.90;;;10.20;16.40;;;;;;5073218;28;20126;-82
2023/03/20 01:00:30;;;;;;;1963.65;258.02;;;10.20;7.00;;;;;;5075557;28;20040;-83
2023/03/20 01:02:57;;;;;;;1973.72;330.52;;;10.50;99.90;;;;;;5078500;28;20052;-83
2023/03/20 01:05:26;;;;;;;1999.90;986.63;;;10.20;99.90;;;;;;5089521;28;20437;-84
2023/03/20 01:07:52;;;;;;;1999.90;236.68;;;10.20;99.90;;;;;;5068387;28;20136;-83
2023/03/20 01:10:17;;;;;;;1774.75;421.95;;;10.10;99.90;;;;;;5072910;28;20483;-83
2023/03/20 01:12:45;;;;;;;1889.95;633.95;;;10.20;99.90;;;;;;5098537;28;20123;-86
2023/03/20 01:15:23;;;;;;;1999.90;999.90;;;10.20;99.90;;;;;;5094080;28;20044;-84
2023/03/20 01:17:49;;;;;;;1655.18;178.02;;;10.50;99.90;;;;;;5093240;28;20036;-84
2023/03/20 01:20:23;;;;;;;1834.30;445.08;;;10.20;99.90;;;;;;5100199;28;20043;-84
2023/03/20 01:22:49;;;;;;;1999.90;618.38;;;9.10;99.90;;;;;;5094157;28;20035;-84
2023/03/20 01:25:16;;;;;;;1999.90;634.67;;;10.70;99.90;;;;;;5092743;28;20044;-83
2023/03/20 01:27:45;;;;;;;1999.90;845.58;;;10.20;99.90;;;;;;5079774;28;20549;-85
2023/03/20 01:30:17;;;;;;;1999.90;885.55;;;10.20;99.90;;;;;;5091127;28;20035;-84
2023/03/20 01:32:45;;;;;;;1999.90;754.85;;;9.80;71.70;;;;;;5064717;28;20043;-84
2023/03/20 01:35:16;;;;;;;1534.88;178.55;;;10.20;63.80;;;;;;5065840;28;20048;-84
2023/03/20 01:37:42;;;;;;;1999.90;581.97;;;;;;;;;;5071820;28;20455;-84
2023/03/20 01:40:23;;;;;;;1999.90;723.07;;;10.20;99.90;;;;;;5079904;28;20122;-84
2023/03/20 01:42:48;;;;;;;1999.90;452.40;;;10.20;99.90;;;;;;5068830;28;20295;-84
2023/03/20 01:45:17;;;;;;;1917.40;798.53;;;10.20;99.90;;;;;;5088797;28;20045;-87
2023/03/20 01:47:43;;;;;;;1966.18;634.53;;;10.20;1.00;;;;;;5072419;28;20484;-83
2023/03/20 01:50:26;;;;;;;1938.18;807.72;;;10.20;99.90;;;;;;5082489;28;20052;-84
2023/03/20 01:53:16;;;;;;;1961.80;812.63;;;11.20;99.90;;;;;;5068505;28;20067;-82
2023/03/20 01:55:43;;;;;;;;;;;10.10;99.90;;;;;;5069604;28;20153;-84
2023/03/20 01:58:15;;;;;;;1470.63;177.60;;;10.10;99.90;;;;;;5088940;28;20395;-83
2023/03/20 02:00:41;;;;;;;1999.90;682.20;;;10.10;1.00;;;;;;5084281;28;20109;-87
2023/03/20 02:03:07;;;;;;;1875.22;239.25;;;9.00;99.90;;;;;;5075680;28;20048;-87
2023/03/20 02:05:35;;;;;;;1971.18;324.05;;;10.10;99.90;;;;;;5087854;28;20047;-83
2023/03/20 02:08:23;;;;;;;1964.80;626.15;;;10.10;1.00;;;;;;5085659;28;20040;-83
2023/03/20 02:10:49;;;;;;;1999.90;430.52;;;10.20;99.90;;;;;;5067025;28;20055;-86
2023/03/20 02:13:15;;;;;;;1928.10;811.08;;;10.10;99.90;;;;;;5078345;28;20044;-83
2023/03/20 02:16:01;;;;;;;1982.07;632.08;;;10.10;99.90;;;;;;5056322;28;20067;-83
2023/03/20 02:18:27;;;;;;;1999.90;876.58;;;10.30;99.90;;;;;;5088946;28;20040;-84
2023/03/20 02:21:05;;;;;;;1599.93;178.38;;;10.10;99.90;;;;;;5067515;28;20035;-84
2023/03/20 02:23:42;;;;;;;1999.90;999.90;;;10.10;99.90;;;;;;5074087;28;20052;-83
2023/03/20 02:26:24;;;;;;;1768.22;605.28;;;10.10;99.90;;;;;;5066828;28;20048;-84
2023/03/20 02:29:05;;;;;;;1810.65;788.72;;;10.10;99.90;;;;;;5069451;28;20045;-83
2023/03/20 02:31:49;;;;;;;1958.97;438.20;;;10.10;99.90;;;;;;5060212;28;20060;-83
2023/03/20 02:34:52;;;;;;;1990.65;303.60;;;10.10;99.90;;;;;;5072939;28;20506;-84
2023/03/20 02:37:40;;;;;;;1999.90;248.70;;;10.10;99.90;;;;;;5074124;28;20052;-83
2023/03/20 02:40:27;;;;;;;1999.90;548.47;;;10.10;99.90;;;;;;5074886;28;20150;-83
2023/03/20 02:43:24;;;;;;;1998.95;811.38;;;10.10;99.90;;;;;;5093538;28;20127;-86
2023/03/20 02:46:19;;;;;;;1999.90;470.88;;;10.20;99.90;;;;;;5075210;28;20104;-83
2023/03/20 02:49:06;;;;;;;1999.90;999.90;;;10.10;99.90;;;;;;5065967;28;20414;-83
2023/03/20 02:52:14;;;;;;;1999.90;449.40;;;10.10;70.60;;;;;;5057736;28;20539;-83
2023/03/20 02:55:09;;;;;;;1999.90;350.90;;;10.10;99.90;;;;;;5070024;28;20060;-84
2023/03/20 02:57:35;;;;;;;1999.90;642.83;;;10.10;99.90;;;;;;5060236;28;20055;-83
2023/03/20 03:00:17;;;;;;;1999.90;467.08;;;10.30;99.90;;;;;;5057764;28;20400;-83
2023/03/20 03:03:01;;;;;;;1999.90;924.47;;;10.00;99.90;;;;;;5073749;28;20641;-83
2023/03/20 03:05:39;;;;;;;1999.90;690.70;;;10.70;99.90;;;;;;5070569;28;20505;-84
2023/03/20 03:08:07;;;;;;;1999.90;718.25;;;10.10;99.90;;;;;;5056001;28;20051;-83
2023/03/20 03:10:42;;;;;;;1999.90;584.38;;;10.20;99.90;;;;;;5090647;28;20048;-83
2023/03/20 03:13:14;;;;;;;1999.90;526.53;;;10.10;99.90;;;;;;5089660;28;20048;-84
2023/03/20 03:15:47;;;;;;;1999.90;604.15;;;11.30;99.90;;;;;;5052838;28;20105;-83
2023/03/20 03:18:18;;;;;;;1999.90;842.55;;;10.10;99.90;;;;;;5073714;28;20059;-83
2023/03/20 03:20:46;;;;;;;1999.90;999.90;;;9.60;99.90;;;;;;5089744;28;20036;-83
2023/03/20 03:23:22;;;;;;;;;;;10.10;99.90;;;;;;5074147;28;20048;-83
2023/03/20 03:25:48;;;;;;;1816.65;230.80;;;10.10;15.10;;;;;;5088993;28;19924;-83
2023/03/20 03:28:41;;;;;;;1965.32;210.57;;;10.40;30.30;;;;;;5071428;28;20528;-83
2023/03/20 03:31:11;;;;;;;1999.90;994.83;;;10.10;99.90;;;;;;5068864;28;20056;-84
2023/03/20 03:33:40;;;;;;;1674.95;178.93;;;10.40;99.90;;;;;;5097112;28;20036;-83
2023/03/20 03:36:28;;;;;;;1999.90;804.03;;;10.10;1.00;;;;;;5097951;28;20464;-83
2023/03/20 03:38:58;;;;;;;1999.90;999.90;;;10.10;99.90;;;;;;5082438;28;20086;-83
2023/03/20 03:41:38;;;;;;;1999.90;475.30;;;10.10;99.90;;;;;;5074005;28;20052;-84
2023/03/20 03:44:12;;;;;;;1999.90;615.70;;;10.10;99.90;;;;;;5052980;28;20123;-84
2023/03/20 03:46:42;;;;;;;1859.05;610.25;;;10.10;99.90;;;;;;5085172;28;20127;-86
2023/03/20 03:49:14;;;;;;;1999.90;628.58;;;10.10;11.50;;;;;;5069570;28;20041;-84
2023/03/20 03:51:43;;;;;;;1999.90;327.65;;;10.20;1.00;;;;;;5066713;28;20068;-83
2023/03/20 03:54:39;;;;;;;1999.90;988.03;;;10.10;1.00;;;;;;5069856;28;20071;-83
2023/03/20 03:57:06;;;;;;;1791.43;601.75;;;10.10;1.00;;;;;;5079511;28;20052;-83
2023/03/20 03:59:39;;;;;;;1999.90;999.90;;;10.10;1.00;;;;;;5063639;28;20456;-83
2023/03/20 04:02:07;;;;;;;1959.60;261.38;;;10.10;1.00;;;;;;5095514;28;20048;-83
2023/03/20 04:04:37;;;;;;;1999.90;792.60;;;10.20;99.90;;;;;;5093510;28;20044;-83
2023/03/20 04:07:03;;;;;;;1999.90;544.05;;;10.10;99.90;;;;;;5095015;28;20047;-82
2023/03/20 04:09:29;;;;;;;1999.90;614.22;;;10.20;99.90;;;;;;5082245;28;20051;-83
2023/03/20 04:11:55;;;;;;;1999.90;750.63;;;10.50;99.90;;;;;;5062128;28;20075;-83
2023/03/20 04:14:21;;;;;;;1999.90;355.20;;;10.60;99.90;;;;;;5087511;28;20044;-83
2023/03/20 04:16:47;;;;;;;1999.90;972.55;;;10.10;99.90;;;;;;5092645;28;20421;-83
2023/03/20 04:19:13;;;;;;;1999.90;863.25;;;;;;;;;;5073142;28;20059;-83
2023/03/20 04:21:38;;;;;;;1999.90;994.03;;;10.10;99.90;;;;;;5064912;28;20059;-83
2023/03/20 04:24:04;;;;;;;1999.90;835.15;;;10.10;99.90;;;;;;5073150;28;20040;-83
2023/03/20 04:26:30;;;;;;;1808.35;242.68;;;10.10;99.90;;;;;;5076659;28;20123;-83
2023/03/20 04:28:56;;;;;;;1606.55;202.90;;;10.10;99.90;;;;;;5074520;28;20484;-83
2023/03/20 04:31:22;;;;;;;1999.90;816.65;;;10.10;34.60;;;;;;5076671;28;20036;-83
2023/03/20 04:33:47;;;;;;;1999.90;683.28;;;10.10;99.90;;;;;;5092680;28;20503;-84
2023/03/20 04:36:13;;;;;;;1999.90;568.25;;;10.10;1.00;;;;;;5083713;28;20397;-83
2023/03/20 04:38:40;;;;;;;1999.90;202.15;;;10.10;62.20;;;;;;5062501;28;20056;-87
2023/03/20 04:41:06;;;;;;;1999.90;327.60;;;10.20;1.00;;;;;;5093891;28;20055;-83
2023/03/20 04:43:33;;;;;;;1999.90;444.58;;;10.30;1.00;;;;;;5059661;28;20043;-83
2023/03/20 04:46:00;;;;;;;1999.90;879.73;;;9.10;87.90;;;;;;5075984;28;20055;-82
2023/03/20 04:48:26;;;;;;;1778.95;398.02;;;10.00;1.00;;;;;;5074722;28;20297;-83
2023/03/20 04:50:52;;;;;;;1984.65;809.40;;;10.00;1.00;;;;;;5090001;28;20496;-84
2023/03/20 04:53:18;;;;;;;1999.90;912.42;;;10.00;1.00;;;;;;5078295;28;20072;-82
2023/03/20 04:55:44;;;;;;;1965.70;293.25;;;10.00;1.00;;;;;;5061990;28;20575;-83
2023/03/20 04:58:11;;;;;;;1999.90;493.02;;;10.00;1.00;;;;;;5059697;28;20420;-87
2023/03/20 05:00:37;;;;;;;1999.90;623.20;;;;;;;;;;5063368;28;20491;-84
2023/03/20 05:03:03;;;;;;;1999.90;916.58;;;10.00;1.00;;;;;;5068845;28;20077;-83
2023/03/20 05:05:28;;;;;;;1894.65;406.60;;;10.00;1.00;;;;;;5046265;28;20048;-83
2023/03/20 05:07:55;;;;;;;1971.80;329.38;;;10.00;99.90;;;;;;5068703;28;20067;-83
2023/03/20 05:10:20;;;;;;;1952.93;239.80;;;10.00;99.90;;;;;;5087096;28;20039;-83
2023/03/20 05:12:47;;;;;;;1999.90;508.65;;;9.50;1.00;;;;;;5091744;28;20047;-83
2023/03/20 05:15:12;;;;;;;1999.90;496.33;;;9.90;1.00;;;;;;5095403;28;20035;-84
2023/03/20 05:17:39;;;;;;;1999.90;769.15;;;;;;;;;;5077780;28;20396;-83
2023/03/20 05:20:05;;;;;;;1989.93;230.15;;;9.90;99.90;;;;;;5056881;28;20485;-83
2023/03/20 05:22:31;;;;;;;1999.90;416.77;;;9.90;99.90;;;;;;5093846;28;20051;-83
2023/03/20 05:24:56;;;;;;;1999.90;549.63;;;10.10;99.90;;;;;;5075866;28;20467;-83
2023/03/20 05:27:22;;;;;;;1999.90;882.90;;;10.30;99.90;;;;;;5088003;28;20075;-84
2023/03/20 05:29:48;;;;;;;1999.90;922.33;;;8.90;99.90;;;;;;5095521;28;20043;-83
2023/03/20 05:32:14;;;;;;;1999.90;807.58;;;9.90;99.90;;;;;;5094889;28;20073;-86
2023/03/20 05:34:40;;;;;;;1999.90;710.55;;;9.20;99.90;;;;;;5092604;28;20119;-86
2023/03/20 05:37:05;;;;;;;1966.93;222.00;;;9.70;1.00;;;;;;5089516;28;20135;-84
2023/03/20 05:39:31;;;;;;;1999.90;302.52;;;9.90;1.00;;;;;;5051272;28;20052;-84
2023/03/20 05:41:58;;;;;;;1999.90;590.00;;;10.00;1.00;;;;;;5076926;28;20196;-84
2023/03/20 05:44:24;;;;;;;1999.90;567.97;;;10.90;1.00;;;;;;5073989;28;20108;-84
2023/03/20 05:46:50;;;;;;;1999.90;470.58;;;9.90;99.90;;;;;;5077586;28;20056;-85
2023/03/20 05:49:15;;;;;;;1999.90;999.90;;;10.70;1.00;;;;;;5082025;28;20112;-83
2023/03/20 05:51:41;;;;;;;1999.90;697.60;;;10.70;1.00;;;;;;5042013;28;20509;-83
2023/03/20 05:54:07;;;;;;;1999.90;406.30;;;9.90;1.00;;;;;;5061860;28;20068;-84
2023/03/20 05:56:32;;;;;;;1999.90;927.38;;;10.00;1.00;;;;;;5044651;28;20044;-88
2023/03/20 05:58:58;;;;;;;1958.72;327.20;;;9.90;99.90;;;;;;5065090;28;20089;-84
2023/03/20 06:01:24;;;;;;;1999.90;999.90;;;10.20;99.90;;;;;;5044798;28;20041;-86
2023/03/20 06:03:49;;;;;;;1999.90;337.17;;;9.40;99.90;;;;;;5049669;28;20083;-84
2023/03/20 06:06:16;;;;;;;1999.90;736.25;;;9.90;99.90;;;;;;5063600;28;20124;-84
2023/03/20 06:08:42;;;;;;;1999.90;300.45;;;10.00;99.90;;;;;;5058810;28;20048;-89
2023/03/20 06:11:09;;;;;;;1999.90;884.53;;;10.00;99.90;;;;;;5065747;28;20041;-84
2023/03/20 06:13:35;;;;;;;1999.90;790.85;;;9.90;99.90;;;;;;5061078;28;20128;-86
2023/03/20 06:16:01;;;;;;;1999.90;888.00;;;9.70;99.90;;;;;;5059392;28;20123;-85
2023/03/20 06:18:26;;;;;;;1999.90;709.35;;;10.00;99.90;;;;;;5060099;28;20044;-83
2023/03/20 06:20:54;;;;;;;1999.90;758.28;;;10.00;99.90;;;;;;5067722;28;20056;-86
2023/03/20 06:23:20;;;;;;;1999.90;769.40;;;10.00;99.90;;;;;;5064484;28;20447;-85
2023/03/20 06:25:45;;;;;;;1999.90;999.90;;;9.00;99.90;;;;;;5060827;28;20033;-84
2023/03/20 06:28:11;;;;;;;1999.90;629.63;;;10.00;99.90;;;;;;5070097;28;20041;-84
2023/03/20 06:30:37;;;;;;;1999.90;878.97;;;;;;;;;;5056804;28;20497;-84
2023/03/20 06:33:06;;;;;;;1965.75;818.08;;;10.10;99.90;;;;;;5066605;28;20079;-87
2023/03/20 06:35:32;;;;;;;1920.47;810.15;;;10.00;99.90;;;;;;5064733;28;20047;-86
2023/03/20 06:37:58;;;;;;;1978.07;625.03;;;9.40;99.90;;;;;;5063324;28;20045;-83
2023/03/20 06:40:26;;;;;;;1907.72;206.30;;;9.50;99.90;;;;;;5056957;28;20048;-88
2023/03/20 06:42:52;;;;;;;1999.90;657.28;;;10.30;99.90;;;;;;5055257;28;20040;-85
2023/03/20 06:45:19;;;;;;;1999.90;340.08;;;10.20;99.90;;;;;;5081054;28;20045;-83
2023/03/20 06:47:46;;;;;;;1999.90;679.33;;;10.20;99.90;;;;;;5067954;28;20044;-85
2023/03/20 06:50:12;;;;;;;1975.25;811.25;;;10.20;99.90;;;;;;5058979;28;20502;-86
2023/03/20 06:52:38;;;;;;;1901.65;249.70;;;10.30;99.90;;;;;;5062982;28;20516;-84
2023/03/20 06:55:05;;;;;;;1628.60;385.33;;;10.30;99.90;;;;;;5064915;28;20050;-84
2023/03/20 06:57:32;;;;;;;1999.90;684.33;;;11.00;21.80;;;;;;5065472;28;20055;-85
2023/03/20 06:59:59;;;;;;;1999.90;999.90;;;;;;;;;;5055658;28;20051;-83
2023/03/20 07:02:25;;;;;;;1983.15;304.13;;;12.60;83.60;;;;;;5061105;28;20044;-84
2023/03/20 07:04:51;;;;;;;1999.90;272.10;;;10.40;60.90;;;;;;5064493;28;20070;-83
2023/03/20 07:07:17;;;;;;;1999.90;502.67;;;10.30;22.40;;;;;;5068802;28;20036;-84
2023/03/20 07:09:44;;;;;;;1999.90;999.90;;;10.30;17.50;;;;;;5068418;28;20051;-83
2023/03/20 07:12:14;;;;;;;1999.90;462.98;;;10.30;82.40;;;;;;5065497;28;20044;-84
2023/03/20 07:14:43;;;;;;;1999.90;835.45;;;10.30;3.70;;;;;;5050476;28;20052;-83
2023/03/20 07:17:09;;;;;;;1999.90;466.92;;;10.40;99.90;;;;;;5060819;28;20044;-84
2023/03/20 07:19:35;;;;;;;1999.90;816.63;;;10.40;70.90;;;;;;5062783;28;20060;-84
2023/03/20 07:22:05;;;;;;;1999.90;999.90;;;10.40;4.40;;;;;;5061651;28;20067;-85
2023/03/20 07:24:31;;;;;;;1999.90;257.73;;;10.40;4.20;;;;;;5070727;28;20048;-83
2023/03/20 07:26:57;;;;;;;1999.90;660.58;;;10.90;1.00;;;;;;5067746;28;20496;-83
2023/03/20 07:29:23;;;;;;;1999.90;912.60;;;;;;;;;;5068574;28;20037;-85
2023/03/20 07:31:49;;;;;;;1999.90;606.65;;;10.60;1.00;;;;;;5067365;28;20499;-93
2023/03/20 07:34:15;;;;;;;1999.90;760.47;;;10.60;1.00;;;;;;5059538;28;20072;-83
2023/03/20 07:36:40;;;;;;;1999.90;604.67;;;11.10;1.00;;;;;;5058143;28;20051;-84
2023/03/20 07:39:07;;;;;;;1999.90;999.90;;;10.60;1.00;;;;;;5063964;28;20053;-84
2023/03/20 07:41:33;;;;;;;1999.90;504.65;;;10.60;1.00;;;;;;5037947;28;20041;-83
2023/03/20 07:43:59;;;;;;;1999.90;999.90;;;10.70;1.00;;;;;;5052407;28;20075;-83
2023/03/20 07:46:25;;;;;;;1999.90;604.70;;;10.70;1.00;;;;;;5053417;28;20047;-84
2023/03/20 07:48:51;;;;;;;1999.90;999.90;;;11.00;1.00;;;;;;5045122;28;20571;-90
2023/03/20 07:51:17;;;;;;;1999.90;999.90;;;10.90;1.00;;;;;;5045735;28;20124;-83
2023/03/20 07:53:42;;;;;;;1677.60;427.02;;;10.90;1.00;;;;;;5049109;28;20045;-85
2023/03/20 07:56:08;;;;;;;1971.82;628.85;;;11.00;1.00;;;;;;5047766;28;20057;-84
2023/03/20 07:58:35;;;;;;;1726.30;264.05;;;11.00;1.00;;;;;;5049108;28;20045;-86
2023/03/20 08:01:01;;;;;;;1999.90;999.90;;;11.10;99.90;;;;;;5051783;28;20047;-83
2023/03/20 08:03:27;;;;;;;1741.28;416.67;;;11.10;99.90;;;;;;5039595;28;20057;-84
2023/03/20 08:05:53;;;;;;;1703.07;230.23;;;11.10;99.90;;;;;;5036389;28;20553;-92
2023/03/20 08:08:19;;;;;;;1568.60;200.20;;;11.10;99.90;;;;;;5037234;28;20102;-84
2023/03/20 08:10:45;;;;;;;1675.55;229.57;;;11.10;99.90;;;;;;5051365;28;20045;-84
2023/03/20 08:13:10;;;;;;;1971.25;225.50;;;11.70;99.90;;;;;;5043412;28;20037;-85
2023/03/20 08:15:36;;;;;;;1802.00;199.80;;;12.50;99.90;;;;;;5046383;28;20073;-84
2023/03/20 08:18:02;;;;;;;1649.35;244.10;;;10.90;99.90;;;;;;5039711;28;20033;-84
2023/03/20 08:20:27;;;;;;;1999.90;999.90;;;11.20;99.90;;;;;;5038735;28;20045;-83
2023/03/20 08:22:53;;;;;;;1455.65;208.68;;;11.30;99.90;;;;;;5042031;28;20075;-84
2023/03/20 08:25:19;;;;;;;1999.90;671.45;;;11.30;99.90;;;;;;5038359;28;20519;-83
2023/03/20 08:27:45;;;;;;;1999.90;660.35;;;11.40;99.90;;;;;;5044018;28;20060;-83
2023/03/20 08:30:12;;;;;;;1999.90;447.70;;;11.70;99.90;;;;;;5043581;28;20370;-84
2023/03/20 08:32:38;;;;;;;1878.30;803.65;;;11.80;99.90;;;;;;5049514;28;20048;-83
2023/03/20 08:35:04;;;;;;;1850.40;303.80;;;12.00;99.90;;;;;;5026738;28;20037;-83
2023/03/20 08:37:30;;;;;;;1999.90;327.25;;;12.10;99.90;;;;;;5037015;28;20117;-84
2023/03/20 08:39:56;;;;;;;1999.90;384.52;;;12.30;99.90;;;;;;5039768;28;20184;-84
2023/03/20 08:42:21;;;;;;;1730.45;232.82;;;12.40;99.90;;;;;;5036181;28;20080;-83
2023/03/20 08:44:47;;;;;;;1645.72;198.38;;;12.40;99.90;;;;;;5041803;28;20041;-84
2023/03/20 08:47:13;;;;;;;1037.45;124.32;;;12.20;99.90;;;;;;5039850;28;20068;-85
2023/03/20 08:49:38;;;;;;;1794.47;792.72;;;12.20;99.90;;;;;;5041422;28;20036;-88
2023/03/20 08:52:04;;;;;;;1727.40;451.73;;;12.20;99.90;;;;;;5037058;28;20064;-87
2023/03/20 08:54:30;;;;;;;1541.53;403.65;;;12.20;99.90;;;;;;5042419;28;20055;-84
2023/03/20 08:56:56;;;;;;;1794.10;615.95;;;12.10;99.90;;;;;;5043196;28;20131;-83
2023/03/20 08:59:22;;;;;;;1999.90;999.90;;;12.10;99.90;;;;;;5045403;28;20521;-83
2023/03/20 09:01:48;;;;;;;1830.28;441.30;;;12.10;99.90;;;;;;5037724;28;20053;-84
2023/03/20 09:04:13;;;;;;;1919.40;821.03;;;12.10;99.90;;;;;;5055526;28;20041;-87
2023/03/20 09:06:40;;;;;;;1913.15;827.40;;;12.10;99.90;;;;;;5042376;28;20044;-84
2023/03/20 09:09:06;;;;;;;1644.22;608.25;;;12.30;99.90;;;;;;5039673;28;20507;-84
2023/03/20 09:11:33;;;;;;;1281.30;188.32;;;12.50;99.90;;;;;;5063057;28;20377;-85
2023/03/20 09:13:59;;;;;;;1716.10;781.67;;;12.70;99.90;;;;;;5043596;28;20040;-88
2023/03/20 09:16:26;;;;;;;1319.45;350.20;;;13.00;99.90;;;;;;5041316;28;20033;-87
2023/03/20 09:18:52;;;;;;;1697.00;768.72;;;12.80;99.90;;;;;;5031400;28;20083;-84
2023/03/20 09:21:18;;;;;;;1999.90;999.90;;;13.00;99.90;;;;;;5053754;28;20048;-85
2023/03/20 09:23:44;;;;;;;1644.40;773.97;;;13.30;99.90;;;;;;5036435;28;20045;-84
2023/03/20 09:26:10;;;;;;;1999.90;999.90;;;13.50;99.90;;;;;;5038426;28;20482;-83
2023/03/20 09:28:35;;;;;;;1999.90;999.90;;;13.90;99.90;;;;;;5057351;28;20048;-84
2023/03/20 09:31:01;;;;;;;1999.90;999.90;;;13.90;99.90;;;;;;5027258;28;20073;-84
2023/03/20 09:33:27;;;;;;;1999.90;999.90;;;13.70;99.90;;;;;;5039262;28;20091;-83
2023/03/20 09:35:53;;;;;;;1999.90;999.90;;;13.40;99.90;;;;;;5041125;28;20046;-87
2023/03/20 09:38:20;;;;;;;1999.90;999.90;;;13.20;99.90;;;;;;5037195;28;20045;-83
2023/03/20 09:40:52;;;;;;;1999.90;999.90;;;13.00;99.90;;;;;;5074789;28;20048;-83
2023/03/20 09:43:27;;;;;;;1999.90;999.90;;;13.20;99.90;;;;;;5077117;28;20044;-85
2023/03/20 09:45:56;;;;;;;1999.90;999.90;;;12.90;99.90;;;;;;5062894;28;20067;-84
2023/03/20 09:48:32;;;;;;;1999.90;999.90;;;13.10;99.90;;;;;;5063683;28;20036;-83
2023/03/20 09:51:09;;;;;;;1999.90;999.90;;;13.10;99.90;;;;;;5081137;28;20052;-83
2023/03/20 09:53:37;;;;;;;1999.90;999.90;;;13.10;99.90;;;;;;5088375;28;20036;-86
2023/03/20 09:56:05;;;;;;;;;;;13.10;99.90;;;;;;5081800;28;20039;-83
2023/03/20 09:58:34;;;;;;;1999.90;999.90;;;13.40;99.90;;;;;;5067519;28;20015;-86
2023/03/20 10:01:04;;;;;;;1999.90;999.90;;;13.70;99.90;;;;;;5081833;28;20115;-83
2023/03/20 10:03:41;;;;;;;1999.90;999.90;;;13.40;99.90;;;;;;5070882;28;20083;-88
2023/03/20 10:06:12;;;;;;;1999.90;999.90;;;13.30;99.90;;;;;;5079606;28;20048;-86
2023/03/20 10:08:39;;;;;;;1999.90;999.90;;;13.40;99.90;;;;;;5081309;28;20055;-87
2023/03/20 10:11:33;;;;;;;1999.90;999.90;;;13.30;99.90;;;;;;5084086;28;20045;-87
2023/03/20 10:14:02;;;;;;;1999.90;999.90;;;13.20;99.90;;;;;;5082027;28;20048;-84
2023/03/20 10:16:52;;;;;;;1999.90;999.90;;;13.30;99.90;;;;;;5062377;28;20063;-83
2023/03/20 10:19:23;;;;;;;1999.90;999.90;;;13.40;99.90;;;;;;5078215;28;20083;-84
2023/03/20 10:22:00;;;;;;;1999.90;999.90;;;13.60;99.90;;;;;;5082092;28;20097;-90
2023/03/20 10:24:32;;;;;;;1999.90;999.90;;;13.70;99.90;;;;;;5058476;28;20040;-83
2023/03/20 10:27:13;;;;;;;1999.90;999.90;;;13.70;99.90;;;;;;5052304;28;20044;-84
2023/03/20 10:30:02;;;;;;;1999.90;999.90;;;13.80;99.90;;;;;;5081237;28;20039;-85
2023/03/20 10:32:27;;;;;;;1999.90;999.90;;;13.80;99.90;;;;;;5064389;28;20131;-84
2023/03/20 10:35:01;;;;;;;1999.90;999.90;;;13.50;99.90;;;;;;5078751;28;20541;-85
2023/03/20 10:38:04;;;;;;;1999.90;999.90;;;13.20;99.90;;;;;;5064970;28;20500;-83
2023/03/20 10:40:35;;;;;;;1999.90;999.90;;;13.10;99.90;;;;;;5032423;28;20129;-87
2023/03/20 10:43:08;;;;;;;1999.90;999.90;;;13.10;99.90;;;;;;5074044;28;20403;-83
2023/03/20 10:45:45;;;;;;;1999.90;999.90;;;13.20;99.90;;;;;;5070261;28;20498;-84
2023/03/20 10:48:28;;;;;;;1999.90;999.90;;;13.20;99.90;;;;;;5093903;28;20472;-89
2023/03/20 10:50:57;;;;;;;1999.90;999.90;;;13.20;99.90;;;;;;5072670;28;20040;-84
2023/03/20 10:54:00;;;;;;;1999.90;999.90;;;13.30;99.90;;;;;;5073769;28;20039;-85
2023/03/20 10:56:35;;;;;;;1999.90;999.90;;;13.40;99.90;;;;;;4991194;28;20116;-83
2023/03/20 10:59:36;;;;;;;1999.90;999.90;;;13.30;99.90;;;;;;5077578;28;20097;-83
2023/03/20 11:02:12;;;;;;;1999.90;999.90;;;13.50;99.90;;;;;;5081858;28;20117;-84
2023/03/20 11:04:38;;;;;;;1999.90;999.90;;;13.70;99.90;;;;;;5085121;28;20088;-84
2023/03/20 11:07:26;;;;;;;1999.90;999.90;;;13.70;99.90;;;;;;5066531;28;20423;-85
2023/03/20 11:10:04;;;;;;;1999.90;999.90;;;13.60;99.90;;;;;;5067840;28;20059;-84
2023/03/20 11:12:35;;;;;;;1999.90;999.90;;;13.30;99.90;;;;;;5064686;28;20081;-83
2023/03/20 11:15:26;;;;;;;1999.90;999.90;;;13.00;99.90;;;;;;5094080;28;20039;-83
2023/03/20 11:17:59;;;;;;;1999.90;999.90;;;13.10;99.90;;;;;;5088734;28;20048;-84
2023/03/20 11:20:31;;;;;;;1999.90;999.90;;;13.00;99.90;;;;;;5083694;28;20055;-84
2023/03/20 11:23:01;;;;;;;1999.90;999.90;;;12.90;99.90;;;;;;5079254;28;20048;-83
2023/03/20 11:25:45;;;;;;;1999.90;999.90;;;12.80;99.90;;;;;;5084763;28;20109;-84
2023/03/20 11:28:35;;;;;;;1999.90;999.90;;;12.80;99.90;;;;;;5061597;28;20079;-84
2023/03/20 11:31:40;;;;;;;1999.90;999.90;;;12.80;99.90;;;;;;5063959;28;20037;-84
2023/03/20 11:34:14;;;;;;;1999.90;999.90;;;12.70;99.90;;;;;;5082841;28;20059;-84
2023/03/20 11:36:57;;;;;;;1999.90;999.90;;;12.50;99.90;;;;;;5077439;28;20048;-83
2023/03/20 11:39:28;;;;;;;1999.90;999.90;;;12.60;99.90;;;;;;5081072;28;20040;-82
2023/03/20 11:41:56;;;;;;;1999.90;999.90;;;13.90;99.90;;;;;;5062006;28;20123;-86
2023/03/20 11:44:29;;;;;;;1999.90;999.90;;;12.50;99.90;;;;;;5084353;28;20051;-84
2023/03/20 11:46:58;;;;;;;1999.90;999.90;;;12.50;99.90;;;;;;5053395;28;20431;-83
2023/03/20 11:49:26;;;;;;;1999.90;999.90;;;12.70;99.90;;;;;;5092301;28;20043;-87
2023/03/20 11:51:54;;;;;;;1999.90;999.90;;;12.80;99.90;;;;;;5089126;28;20048;-84
2023/03/20 11:54:23;;;;;;;1999.90;999.90;;;12.80;99.90;;;;;;5080927;28;20075;-89
2023/03/20 11:56:57;;;;;;;1999.90;999.90;;;12.70;99.90;;;;;;5077178;28;20036;-83
2023/03/20 11:59:32;;;;;;;1999.90;999.90;;;12.70;99.90;;;;;;5068621;28;20040;-83
2023/03/20 12:02:00;;;;;;;1999.90;999.90;;;12.70;99.90;;;;;;5076328;28;20055;-83
2023/03/20 12:04:41;;;;;;;1999.90;999.90;;;12.60;99.90;;;;;;5072098;28;20044;-86
2023/03/20 12:07:15;;;;;;;1999.90;999.90;;;12.50;99.90;;;;;;5082073;28;20040;-85
2023/03/20 12:09:58;;;;;;;1999.90;999.90;;;12.50;99.90;;;;;;5065023;28;20040;-83
2023/03/20 12:12:36;;;;;;;1999.90;999.90;;;12.30;99.90;;;;;;5091176;28;20051;-83
2023/03/20 12:15:14;;;;;;;1999.90;999.90;;;12.40;99.90;;;;;;5058124;28;20044;-83
2023/03/20 12:18:12;;;;;;;1999.90;999.90;;;12.10;99.90;;;;;;5075793;28;20638;-83
2023/03/20 12:20:49;;;;;;;1999.90;999.90;;;12.20;99.90;;;;;;5070031;28;20113;-83